SBPB/PHB METAR and TAF weather

Enter ICAO airport designator
Station Type Date Time Source
SBPB METAR 2020/09/18 21:00 UTC NOAA

SBPB 182100Z 08012KT 9999 SCT017 28/23 Q////


Station Type Date Time Source
SBPB Decoded METAR 2020/09/18 21:00 UTC NOAA

Parnaiba Aeroporto , Brazil (SBPB) 02-55S 041-45W
Sep 18, 2020 - 05:00 PM EDT / 2020.09.18 2100 UTC
Wind: from the E (080 degrees) at 14 MPH (12 KT):0
Visibility: greater than 7 mile(s):0
Sky conditions: partly cloudy
Temperature: 82 F (28 C)
Dew Point: 73 F (23 C)
Relative Humidity: 74%
ob: SBPB 182100Z 08012KT 9999 SCT017 28/23 Q////
cycle: 21

Station Type Date Time Source
SBPB TAF 2020/09/19 18:51 UTC NOAA

TAF SBPB 191500Z 1918/2006 06015KT 9999 FEW017 TX31/1918Z TN28/1921Z
RMK PHD

Example: see airport list